createdAt,value
2023-10-06T00:01:12.414Z,99.90
2023-10-06T00:03:42.661Z,99.90
2023-10-06T00:06:16.979Z,99.90
2023-10-06T00:08:52.560Z,99.90
2023-10-06T00:11:32.517Z,99.90
2023-10-06T00:14:08.345Z,99.90
2023-10-06T00:16:42.259Z,99.90
2023-10-06T00:19:22.537Z,99.90
2023-10-06T00:22:02.525Z,99.90
2023-10-06T00:24:32.585Z,99.90
2023-10-06T00:27:02.341Z,99.90
2023-10-06T00:29:30.598Z,99.90
2023-10-06T00:32:04.733Z,99.90
2023-10-06T00:34:35.032Z,99.90
2023-10-06T00:37:03.864Z,99.90
2023-10-06T00:39:32.122Z,99.90
2023-10-06T00:42:07.898Z,99.90
2023-10-06T00:44:36.494Z,99.90
2023-10-06T00:47:07.398Z,99.90
2023-10-06T00:49:36.200Z,99.90
2023-10-06T00:52:07.663Z,99.90
2023-10-06T00:54:36.273Z,99.90
2023-10-06T00:57:11.385Z,99.90
2023-10-06T00:59:39.868Z,99.90
2023-10-06T01:02:10.367Z,99.90
2023-10-06T01:04:46.142Z,99.90
2023-10-06T01:07:16.839Z,99.90
2023-10-06T01:09:57.839Z,99.90
2023-10-06T01:12:30.675Z,99.90
2023-10-06T01:15:17.239Z,99.90
2023-10-06T01:17:45.897Z,99.90
2023-10-06T01:20:29.389Z,99.90
2023-10-06T01:22:59.127Z,99.90
2023-10-06T01:25:27.988Z,99.90
2023-10-06T01:27:56.111Z,99.90
2023-10-06T01:30:24.240Z,99.90
2023-10-06T01:32:53.074Z,99.90
2023-10-06T01:35:25.453Z,99.90
2023-10-06T01:38:00.844Z,99.90
2023-10-06T01:40:44.881Z,99.90
2023-10-06T01:43:16.384Z,99.90
2023-10-06T01:45:46.112Z,99.90
2023-10-06T01:48:24.373Z,99.90
2023-10-06T01:50:55.584Z,99.90
2023-10-06T01:53:24.326Z,99.90
2023-10-06T01:55:56.263Z,99.90
2023-10-06T01:58:24.505Z,99.90
2023-10-06T02:00:52.670Z,99.90
2023-10-06T02:03:22.789Z,99.90
2023-10-06T02:05:56.065Z,99.90
2023-10-06T02:08:24.907Z,99.90
2023-10-06T02:10:56.566Z,99.90
2023-10-06T02:13:24.860Z,99.90
2023-10-06T02:16:00.058Z,99.90
2023-10-06T02:18:36.965Z,99.90
2023-10-06T02:21:13.326Z,99.90
2023-10-06T02:23:43.021Z,99.90
2023-10-06T02:26:14.076Z,99.90
2023-10-06T02:28:45.609Z,99.90
2023-10-06T02:31:15.155Z,99.90
2023-10-06T02:33:49.184Z,99.90
2023-10-06T02:36:22.674Z,99.90
2023-10-06T02:38:52.053Z,99.90
2023-10-06T02:41:26.983Z,99.90
2023-10-06T02:43:58.862Z,99.90
2023-10-06T02:46:27.503Z,99.90
2023-10-06T02:48:56.320Z,99.90
2023-10-06T02:51:31.308Z,99.90
2023-10-06T02:54:21.686Z,99.90
2023-10-06T02:56:52.087Z,99.90
2023-10-06T02:59:23.513Z,99.90
2023-10-06T03:01:53.797Z,99.90
2023-10-06T03:04:26.570Z,99.90
2023-10-06T03:06:57.123Z,99.90
2023-10-06T03:09:37.709Z,99.90
2023-10-06T03:12:16.753Z,99.90
2023-10-06T03:14:45.146Z,99.90
2023-10-06T03:17:14.872Z,99.90
2023-10-06T03:19:44.613Z,99.90
2023-10-06T03:22:15.265Z,99.90
2023-10-06T03:24:55.056Z,99.90
2023-10-06T03:27:25.179Z,99.90
2023-10-06T03:29:56.267Z,99.90
2023-10-06T03:32:33.640Z,99.90
2023-10-06T03:35:13.331Z,99.90
2023-10-06T03:37:53.367Z,99.90
2023-10-06T03:40:24.780Z,99.90
2023-10-06T03:42:55.061Z,99.90
2023-10-06T03:45:30.325Z,99.90
2023-10-06T03:48:13.117Z,99.90
2023-10-06T03:50:44.664Z,99.90
2023-10-06T03:53:15.862Z,99.90
2023-10-06T03:55:47.373Z,99.90
2023-10-06T03:58:19.556Z,99.90
2023-10-06T04:00:51.004Z,99.90
2023-10-06T04:03:20.580Z,99.90
2023-10-06T04:05:51.227Z,99.90
2023-10-06T04:08:22.514Z,99.90
2023-10-06T04:10:56.087Z,99.90
2023-10-06T04:13:26.246Z,99.90
2023-10-06T04:15:55.566Z,99.90
2023-10-06T04:18:25.665Z,99.90
2023-10-06T04:20:56.191Z,99.90
2023-10-06T04:23:25.244Z,99.90
2023-10-06T04:25:57.584Z,99.90
2023-10-06T04:28:29.574Z,99.90
2023-10-06T04:31:02.202Z,99.90
2023-10-06T04:33:30.926Z,99.90
2023-10-06T04:36:01.641Z,99.90
2023-10-06T04:38:30.915Z,99.90
2023-10-06T04:40:59.229Z,99.90
2023-10-06T04:43:28.698Z,99.90
2023-10-06T04:45:57.230Z,99.90
2023-10-06T04:48:25.483Z,99.90
2023-10-06T04:50:55.134Z,99.90
2023-10-06T04:53:23.894Z,99.90
2023-10-06T04:55:52.602Z,99.90
2023-10-06T04:58:20.821Z,99.90
2023-10-06T05:00:54.436Z,99.90
2023-10-06T05:03:24.088Z,99.90
2023-10-06T05:05:56.842Z,99.90
2023-10-06T05:08:25.919Z,99.90
2023-10-06T05:10:57.089Z,99.90
2023-10-06T05:13:27.878Z,99.90
2023-10-06T05:15:57.526Z,99.90
2023-10-06T05:18:25.794Z,99.90
2023-10-06T05:20:54.311Z,99.90
2023-10-06T05:23:22.505Z,99.90
2023-10-06T05:25:50.696Z,99.90
2023-10-06T05:28:18.900Z,99.90
2023-10-06T05:30:47.351Z,99.90
2023-10-06T05:33:17.346Z,99.90
2023-10-06T05:35:46.717Z,99.90
2023-10-06T05:38:15.408Z,99.90
2023-10-06T05:40:45.537Z,99.90
2023-10-06T05:43:14.073Z,99.90
2023-10-06T05:45:43.073Z,99.90
2023-10-06T05:48:12.539Z,99.90
2023-10-06T05:50:42.691Z,99.90
2023-10-06T05:53:14.079Z,99.90
2023-10-06T05:55:43.501Z,99.90
2023-10-06T05:58:15.694Z,99.90
2023-10-06T06:00:52.478Z,99.90
2023-10-06T06:03:22.666Z,99.90
2023-10-06T06:05:54.052Z,99.90
2023-10-06T06:08:22.610Z,99.90
2023-10-06T06:10:51.051Z,99.90
2023-10-06T06:13:21.102Z,99.90
2023-10-06T06:15:51.129Z,99.90
2023-10-06T06:18:19.407Z,99.90
2023-10-06T06:20:47.584Z,99.90
2023-10-06T06:23:17.395Z,99.90
2023-10-06T06:25:46.500Z,99.90
2023-10-06T06:28:15.949Z,99.90
2023-10-06T06:30:44.292Z,99.90
2023-10-06T06:33:14.846Z,99.90
2023-10-06T06:35:43.985Z,99.90
2023-10-06T06:38:14.231Z,99.90
2023-10-06T06:40:44.760Z,99.90
2023-10-06T06:43:12.942Z,99.90
2023-10-06T06:45:45.285Z,99.90
2023-10-06T06:48:15.044Z,99.90
2023-10-06T06:50:44.419Z,99.90
2023-10-06T06:53:13.505Z,99.90
2023-10-06T06:55:44.369Z,99.90
2023-10-06T06:58:13.355Z,99.90
2023-10-06T07:00:42.312Z,99.90
2023-10-06T07:03:12.499Z,99.90
2023-10-06T07:05:41.458Z,99.90
2023-10-06T07:08:10.216Z,99.90
2023-10-06T07:10:40.448Z,99.90
2023-10-06T07:13:11.958Z,99.90
2023-10-06T07:15:40.550Z,99.90
2023-10-06T07:18:07.894Z,99.90
2023-10-06T07:20:36.139Z,99.90
2023-10-06T07:23:05.706Z,99.90
2023-10-06T07:25:34.056Z,99.90
2023-10-06T07:28:02.660Z,99.90
2023-10-06T07:30:35.951Z,99.90
2023-10-06T07:33:07.036Z,99.90
2023-10-06T07:35:43.125Z,99.90
2023-10-06T07:38:13.317Z,99.90
2023-10-06T07:40:43.491Z,99.90
2023-10-06T07:43:14.069Z,99.90
2023-10-06T07:45:44.260Z,99.90
2023-10-06T07:48:12.533Z,99.90
2023-10-06T07:50:40.718Z,99.90
2023-10-06T07:53:08.822Z,99.90
2023-10-06T07:55:38.230Z,99.90
2023-10-06T07:58:09.545Z,99.90
2023-10-06T08:00:43.154Z,99.90
2023-10-06T08:03:14.010Z,99.90
2023-10-06T08:05:42.254Z,99.90
2023-10-06T08:08:10.443Z,99.90
2023-10-06T08:10:39.270Z,99.90
2023-10-06T08:13:09.119Z,99.90
2023-10-06T08:15:41.946Z,99.90
2023-10-06T08:18:10.233Z,99.90
2023-10-06T08:20:41.295Z,99.90
2023-10-06T08:23:09.510Z,99.90
2023-10-06T08:25:53.356Z,99.90
2023-10-06T08:28:27.342Z,99.90
2023-10-06T08:30:56.078Z,99.90
2023-10-06T08:33:27.230Z,99.90
2023-10-06T08:36:01.530Z,99.90
2023-10-06T08:38:31.166Z,99.90
2023-10-06T08:41:04.914Z,99.90
2023-10-06T08:43:33.779Z,99.90
2023-10-06T08:46:03.899Z,99.90
2023-10-06T08:48:34.459Z,99.90
2023-10-06T08:51:12.147Z,99.90
2023-10-06T08:53:46.321Z,99.90
2023-10-06T08:56:18.638Z,97.60
2023-10-06T08:58:47.114Z,85.90
2023-10-06T09:01:16.165Z,92.60
2023-10-06T09:03:44.414Z,94.40
2023-10-06T09:06:15.384Z,83.30
2023-10-06T09:08:46.148Z,82.00
2023-10-06T09:11:16.215Z,68.80
2023-10-06T09:13:44.500Z,68.00
2023-10-06T09:16:13.343Z,70.30
2023-10-06T09:18:42.527Z,59.70
2023-10-06T09:21:20.322Z,53.50
2023-10-06T09:23:50.533Z,46.60
2023-10-06T09:26:30.827Z,39.50
2023-10-06T09:29:02.750Z,37.30
2023-10-06T09:31:40.403Z,37.60
2023-10-06T09:34:11.759Z,39.10
2023-10-06T09:36:45.998Z,40.30
2023-10-06T09:39:27.353Z,43.30
2023-10-06T09:41:56.698Z,45.00
2023-10-06T09:44:28.981Z,45.60
2023-10-06T09:47:02.433Z,46.60
2023-10-06T09:49:34.032Z,49.90
2023-10-06T09:52:06.926Z,56.60
2023-10-06T09:54:39.774Z,54.20
2023-10-06T09:57:08.935Z,42.80
2023-10-06T09:59:39.444Z,38.30
2023-10-06T10:02:13.007Z,38.40
2023-10-06T10:04:43.241Z,38.00
2023-10-06T10:07:14.064Z,34.80
2023-10-06T10:09:44.863Z,29.30
2023-10-06T10:12:38.852Z,27.70
2023-10-06T10:15:26.539Z,28.20
2023-10-06T10:18:07.119Z,28.90
2023-10-06T10:20:38.167Z,26.50
2023-10-06T10:23:08.129Z,25.50
2023-10-06T10:25:38.297Z,24.20
2023-10-06T10:28:18.519Z,24.10
2023-10-06T10:30:54.945Z,22.70
2023-10-06T10:33:23.680Z,21.80
2023-10-06T10:36:32.491Z,21.00
2023-10-06T10:39:13.992Z,22.00
2023-10-06T10:41:42.963Z,21.80
2023-10-06T10:44:25.225Z,22.00
2023-10-06T10:46:57.589Z,21.40
2023-10-06T10:49:26.978Z,21.50
2023-10-06T10:51:58.612Z,21.70
2023-10-06T10:54:30.715Z,22.60
2023-10-06T10:57:07.317Z,23.50
2023-10-06T11:00:18.637Z,22.20
2023-10-06T11:03:04.454Z,22.30
2023-10-06T11:05:33.627Z,24.30
2023-10-06T11:08:06.960Z,24.50
2023-10-06T11:10:39.303Z,25.00
2023-10-06T11:13:20.142Z,24.50
2023-10-06T11:15:50.161Z,24.00
2023-10-06T11:18:21.771Z,25.40
2023-10-06T11:20:51.155Z,25.50
2023-10-06T11:23:19.438Z,24.50
2023-10-06T11:25:52.509Z,23.60
2023-10-06T11:28:21.178Z,24.00
2023-10-06T11:30:50.753Z,23.80
2023-10-06T11:33:21.431Z,23.60
2023-10-06T11:35:50.107Z,22.50
2023-10-06T11:38:18.700Z,21.90
2023-10-06T11:40:47.300Z,21.60
2023-10-06T11:43:20.081Z,23.00
2023-10-06T11:45:49.680Z,23.90
2023-10-06T11:48:30.663Z,24.10
2023-10-06T11:51:07.368Z,23.80
2023-10-06T11:53:36.571Z,23.70
2023-10-06T11:56:11.196Z,23.90
2023-10-06T11:58:42.652Z,22.40
2023-10-06T12:01:33.837Z,23.00
2023-10-06T12:04:05.920Z,22.60
2023-10-06T12:06:41.120Z,22.60
2023-10-06T12:09:14.010Z,23.90
2023-10-06T12:11:42.726Z,23.50
2023-10-06T12:14:13.042Z,23.20
2023-10-06T12:16:46.075Z,23.50
2023-10-06T12:19:15.000Z,25.30
2023-10-06T12:21:43.271Z,26.60
2023-10-06T12:24:12.875Z,25.30
2023-10-06T12:26:41.460Z,25.50
2023-10-06T12:29:11.253Z,23.90
2023-10-06T12:31:40.700Z,23.90
2023-10-06T12:34:09.500Z,24.10
2023-10-06T12:36:38.034Z,23.10
2023-10-06T12:39:06.639Z,22.20
2023-10-06T12:41:35.046Z,23.80
2023-10-06T12:44:11.218Z,23.20
2023-10-06T12:46:41.409Z,24.70
2023-10-06T12:49:09.918Z,25.40
2023-10-06T12:51:38.501Z,23.50
2023-10-06T12:54:08.500Z,23.40
2023-10-06T12:56:37.152Z,23.70
2023-10-06T12:59:06.122Z,22.70
2023-10-06T13:01:35.511Z,23.90
2023-10-06T13:04:07.086Z,24.20
2023-10-06T13:06:36.857Z,24.60
2023-10-06T13:09:05.614Z,25.50
2023-10-06T13:11:34.041Z,26.00
2023-10-06T13:14:07.117Z,26.40
2023-10-06T13:16:36.130Z,26.60
2023-10-06T13:19:06.173Z,25.90
2023-10-06T13:21:34.476Z,26.60
2023-10-06T13:24:06.515Z,26.00
2023-10-06T13:26:43.188Z,26.80
2023-10-06T13:29:12.593Z,27.20
2023-10-06T13:31:42.016Z,27.30
2023-10-06T13:34:11.946Z,28.80
2023-10-06T13:36:42.400Z,28.60
2023-10-06T13:39:16.845Z,27.70
2023-10-06T13:41:45.467Z,27.20
2023-10-06T13:44:14.560Z,27.60
2023-10-06T13:46:43.059Z,27.70
2023-10-06T13:49:13.586Z,27.50
2023-10-06T13:51:42.918Z,28.00
2023-10-06T13:54:11.318Z,27.20
2023-10-06T13:56:40.097Z,27.60
2023-10-06T13:59:08.494Z,27.80
2023-10-06T14:01:37.090Z,27.80
2023-10-06T14:04:05.790Z,27.70
2023-10-06T14:06:35.617Z,27.90
2023-10-06T14:09:06.932Z,28.40
2023-10-06T14:11:35.419Z,29.00
2023-10-06T14:14:17.385Z,29.20
2023-10-06T14:16:47.466Z,28.70
2023-10-06T14:19:18.030Z,29.40
2023-10-06T14:21:51.786Z,29.30
2023-10-06T14:24:20.154Z,29.50
2023-10-06T14:26:48.335Z,29.80
2023-10-06T14:29:16.610Z,30.10
2023-10-06T14:32:00.051Z,30.40
2023-10-06T14:34:47.807Z,31.50
2023-10-06T14:37:37.368Z,32.40
2023-10-06T14:40:23.771Z,34.10
2023-10-06T14:43:09.743Z,33.70
2023-10-06T14:45:55.371Z,34.20
2023-10-06T14:48:28.527Z,32.20
2023-10-06T14:51:01.822Z,31.70
2023-10-06T14:53:31.595Z,30.70
2023-10-06T14:56:02.087Z,31.00
2023-10-06T14:58:35.773Z,32.00
2023-10-06T15:01:09.535Z,30.00
2023-10-06T15:03:37.862Z,31.00
2023-10-06T15:06:06.962Z,30.70
2023-10-06T15:08:36.786Z,31.10
2023-10-06T15:11:05.262Z,30.20
2023-10-06T15:13:37.734Z,30.60
2023-10-06T15:16:09.314Z,30.90
2023-10-06T15:18:38.391Z,32.30
2023-10-06T15:21:06.811Z,30.80
2023-10-06T15:23:36.619Z,30.00
2023-10-06T15:26:08.013Z,32.50
2023-10-06T15:28:39.448Z,30.50
2023-10-06T15:31:08.102Z,31.30
2023-10-06T15:33:36.528Z,30.60
2023-10-06T15:36:06.825Z,31.30
2023-10-06T15:38:37.076Z,32.40
2023-10-06T15:41:11.830Z,33.80
2023-10-06T15:43:41.304Z,34.70
2023-10-06T15:46:12.504Z,35.00
2023-10-06T15:48:42.186Z,36.20
2023-10-06T15:51:13.750Z,36.30
2023-10-06T15:53:45.920Z,36.60
2023-10-06T15:56:15.868Z,36.70
2023-10-06T15:58:46.302Z,37.90
2023-10-06T16:01:16.110Z,38.80
2023-10-06T16:03:48.786Z,38.80
2023-10-06T16:06:21.923Z,39.90
2023-10-06T16:08:51.787Z,39.90
2023-10-06T16:11:19.999Z,41.60
2023-10-06T16:13:48.170Z,42.70
2023-10-06T16:16:19.089Z,44.20
2023-10-06T16:18:50.199Z,45.00
2023-10-06T16:21:18.955Z,47.10
2023-10-06T16:23:57.441Z,46.10
2023-10-06T16:26:34.954Z,45.70
2023-10-06T16:29:04.763Z,48.00
2023-10-06T16:31:33.804Z,49.30
2023-10-06T16:34:02.611Z,51.70
2023-10-06T16:36:30.967Z,54.40
2023-10-06T16:39:05.482Z,57.70
2023-10-06T16:41:35.267Z,63.30
2023-10-06T16:44:06.816Z,73.10
2023-10-06T16:46:35.126Z,90.10
2023-10-06T16:49:07.619Z,96.90
2023-10-06T16:51:36.103Z,99.90
2023-10-06T16:54:05.808Z,99.90
2023-10-06T16:56:35.506Z,99.90
2023-10-06T16:59:03.772Z,99.90
2023-10-06T17:01:32.164Z,99.90
2023-10-06T17:04:05.819Z,99.90
2023-10-06T17:06:34.641Z,99.90
2023-10-06T17:09:03.647Z,99.90
2023-10-06T17:11:32.164Z,99.90
2023-10-06T17:14:01.874Z,99.90
2023-10-06T17:16:30.509Z,99.90
2023-10-06T17:18:59.016Z,99.90
2023-10-06T17:21:27.900Z,99.90
2023-10-06T17:23:56.242Z,99.90
2023-10-06T17:26:24.856Z,99.90
2023-10-06T17:28:53.293Z,99.90
2023-10-06T17:31:22.904Z,99.90
2023-10-06T17:33:53.156Z,99.90
2023-10-06T17:36:21.321Z,99.90
2023-10-06T17:38:49.548Z,99.90
2023-10-06T17:41:18.064Z,99.90
2023-10-06T17:43:47.929Z,99.90
2023-10-06T17:46:17.400Z,99.90
2023-10-06T17:48:48.345Z,99.90
2023-10-06T17:51:20.143Z,99.90
2023-10-06T17:53:49.637Z,99.90
2023-10-06T17:56:19.076Z,99.90
2023-10-06T17:58:48.743Z,99.90
2023-10-06T18:01:17.832Z,99.90
2023-10-06T18:03:49.142Z,99.90
2023-10-06T18:06:18.672Z,99.90
2023-10-06T18:08:49.757Z,99.90
2023-10-06T18:11:18.259Z,99.90
2023-10-06T18:13:47.449Z,99.90
2023-10-06T18:16:15.933Z,99.90
2023-10-06T18:18:44.356Z,99.90
2023-10-06T18:21:14.825Z,99.90
2023-10-06T18:23:43.320Z,99.90
2023-10-06T18:26:20.187Z,99.90
2023-10-06T18:28:48.554Z,99.90
2023-10-06T18:31:16.868Z,99.90
2023-10-06T18:33:46.614Z,99.90
2023-10-06T18:36:16.276Z,99.90
2023-10-06T18:38:45.169Z,99.90
2023-10-06T18:41:14.644Z,99.90
2023-10-06T18:43:43.585Z,99.90
2023-10-06T18:46:12.025Z,99.90
2023-10-06T18:48:41.428Z,99.90
2023-10-06T18:51:09.941Z,99.90
2023-10-06T18:53:39.585Z,99.90
2023-10-06T18:56:07.727Z,99.90
2023-10-06T18:58:37.545Z,99.90
2023-10-06T19:01:07.360Z,99.90
2023-10-06T19:03:37.566Z,99.90
2023-10-06T19:06:07.981Z,99.90
2023-10-06T19:08:40.869Z,99.90
2023-10-06T19:11:13.496Z,99.90
2023-10-06T19:13:41.810Z,99.90
2023-10-06T19:16:12.025Z,99.90
2023-10-06T19:21:39.230Z,99.90
2023-10-06T19:24:09.977Z,99.90
2023-10-06T19:26:39.641Z,99.90
2023-10-06T19:29:08.622Z,99.90
2023-10-06T19:31:37.538Z,99.90
2023-10-06T19:34:06.231Z,99.90
2023-10-06T19:36:35.585Z,99.90
2023-10-06T19:39:05.264Z,99.90
2023-10-06T19:41:33.850Z,99.90
2023-10-06T19:44:03.993Z,99.90
2023-10-06T19:46:32.644Z,99.90
2023-10-06T19:49:01.283Z,99.90
2023-10-06T19:51:30.000Z,99.90
2023-10-06T19:53:58.735Z,99.90
2023-10-06T19:56:27.066Z,99.90
2023-10-06T19:58:56.255Z,99.90
2023-10-06T20:01:26.224Z,99.90
2023-10-06T20:03:54.668Z,99.90
2023-10-06T20:06:22.910Z,99.90
2023-10-06T20:08:51.067Z,99.90
2023-10-06T20:11:20.652Z,99.90
2023-10-06T20:13:49.339Z,99.90
2023-10-06T20:16:17.816Z,99.90
2023-10-06T20:18:48.000Z,99.90
2023-10-06T20:21:18.997Z,99.90
2023-10-06T20:23:51.181Z,99.90
2023-10-06T20:26:19.589Z,99.90
2023-10-06T20:28:47.799Z,99.90
2023-10-06T20:31:16.104Z,99.90
2023-10-06T20:33:44.427Z,99.90
2023-10-06T20:36:14.040Z,99.90
2023-10-06T20:38:42.465Z,99.90
2023-10-06T20:41:10.670Z,99.90
2023-10-06T20:43:39.976Z,99.90
2023-10-06T20:46:09.923Z,99.90
2023-10-06T20:48:38.510Z,99.90
2023-10-06T20:51:08.002Z,99.90
2023-10-06T20:53:38.049Z,99.90
2023-10-06T20:56:07.943Z,99.90
2023-10-06T20:58:36.448Z,99.90
2023-10-06T21:01:08.188Z,99.90
2023-10-06T21:03:36.833Z,99.90
2023-10-06T21:06:05.593Z,99.90
2023-10-06T21:08:33.819Z,99.90
2023-10-06T21:11:03.581Z,99.90
2023-10-06T21:13:31.965Z,99.90
2023-10-06T21:16:00.450Z,99.90
2023-10-06T21:18:29.119Z,99.90
2023-10-06T21:20:57.336Z,99.90
2023-10-06T21:23:26.675Z,99.90
2023-10-06T21:25:55.200Z,99.90
2023-10-06T21:28:24.806Z,99.90
2023-10-06T21:30:53.007Z,99.90
2023-10-06T21:33:21.261Z,99.90
2023-10-06T21:35:49.411Z,99.90
2023-10-06T21:38:17.626Z,99.90
2023-10-06T21:40:48.062Z,99.90
2023-10-06T21:43:16.879Z,99.90
2023-10-06T21:45:47.127Z,99.90
2023-10-06T21:48:16.748Z,99.90
2023-10-06T21:50:48.905Z,99.90
2023-10-06T21:53:17.580Z,99.90
2023-10-06T21:55:46.327Z,99.90
2023-10-06T21:58:14.565Z,99.90
2023-10-06T22:00:45.197Z,99.90
2023-10-06T22:03:15.263Z,99.90
2023-10-06T22:05:43.631Z,99.90
2023-10-06T22:08:12.483Z,99.90
2023-10-06T22:10:40.898Z,99.90
2023-10-06T22:13:09.283Z,99.90
2023-10-06T22:15:37.932Z,99.90
2023-10-06T22:18:07.237Z,99.90
2023-10-06T22:20:36.964Z,99.90
2023-10-06T22:23:06.708Z,99.90
2023-10-06T22:25:38.212Z,99.90
2023-10-06T22:28:07.341Z,99.90
2023-10-06T22:30:37.895Z,99.90
2023-10-06T22:33:06.971Z,99.90
2023-10-06T22:35:36.647Z,99.90
2023-10-06T22:38:05.449Z,99.90
2023-10-06T22:40:34.598Z,99.90
2023-10-06T22:43:03.463Z,99.90
2023-10-06T22:45:31.658Z,99.90
2023-10-06T22:48:01.655Z,99.90
2023-10-06T22:50:29.926Z,99.90
2023-10-06T22:53:00.496Z,99.90
2023-10-06T22:55:30.426Z,99.90
2023-10-06T22:57:59.061Z,99.90
2023-10-06T23:00:29.962Z,99.90
2023-10-06T23:02:58.837Z,99.90
2023-10-06T23:05:27.557Z,99.90
2023-10-06T23:07:55.878Z,99.90
2023-10-06T23:10:27.693Z,99.90
2023-10-06T23:12:56.926Z,99.90
2023-10-06T23:15:29.804Z,99.90
2023-10-06T23:17:58.068Z,99.90
2023-10-06T23:20:26.410Z,99.90
2023-10-06T23:22:59.688Z,99.90
2023-10-06T23:25:37.562Z,99.90
2023-10-06T23:28:08.671Z,99.90
2023-10-06T23:30:38.073Z,99.90
2023-10-06T23:33:07.554Z,99.90
2023-10-06T23:35:36.202Z,99.90
2023-10-06T23:38:07.795Z,99.90
2023-10-06T23:40:43.456Z,99.90
2023-10-06T23:43:12.182Z,99.90
2023-10-06T23:45:43.985Z,99.90
2023-10-06T23:48:12.711Z,99.90
2023-10-06T23:50:52.897Z,99.90
2023-10-06T23:53:28.995Z,99.90
2023-10-06T23:56:01.670Z,99.90
2023-10-06T23:58:34.461Z,99.90
